sensor_id;sensor_type;location;lat;lon;timestamp;P1;durP1;ratioP1;P2;durP2;ratioP2
11141;SDS011;5625;50.122;19.864;2024-03-02T00:02:01;43.17;;;29.27;;
11141;SDS011;5625;50.122;19.864;2024-03-02T00:04:29;41.30;;;29.47;;
11141;SDS011;5625;50.122;19.864;2024-03-02T00:06:58;41.13;;;28.97;;
11141;SDS011;5625;50.122;19.864;2024-03-02T00:09:26;39.73;;;29.50;;
11141;SDS011;5625;50.122;19.864;2024-03-02T00:11:56;39.27;;;28.70;;
11141;SDS011;5625;50.122;19.864;2024-03-02T00:14:24;36.67;;;27.67;;
11141;SDS011;5625;50.122;19.864;2024-03-02T00:16:52;41.63;;;28.50;;
11141;SDS011;5625;50.122;19.864;2024-03-02T00:19:23;35.73;;;27.33;;
11141;SDS011;5625;50.122;19.864;2024-03-02T00:21:51;41.63;;;29.20;;
11141;SDS011;5625;50.122;19.864;2024-03-02T00:24:20;41.93;;;29.27;;
11141;SDS011;5625;50.122;19.864;2024-03-02T00:26:51;42.07;;;29.43;;
11141;SDS011;5625;50.122;19.864;2024-03-02T00:29:21;35.40;;;27.63;;
11141;SDS011;5625;50.122;19.864;2024-03-02T00:31:49;42.00;;;28.80;;
11141;SDS011;5625;50.122;19.864;2024-03-02T00:34:17;39.13;;;26.20;;
11141;SDS011;5625;50.122;19.864;2024-03-02T00:36:48;37.67;;;27.17;;
11141;SDS011;5625;50.122;19.864;2024-03-02T00:39:17;39.27;;;28.10;;
11141;SDS011;5625;50.122;19.864;2024-03-02T00:41:45;39.23;;;27.93;;
11141;SDS011;5625;50.122;19.864;2024-03-02T00:44:14;39.80;;;27.83;;
11141;SDS011;5625;50.122;19.864;2024-03-02T00:46:44;39.83;;;29.00;;
11141;SDS011;5625;50.122;19.864;2024-03-02T00:49:23;42.37;;;27.50;;
11141;SDS011;5625;50.122;19.864;2024-03-02T00:51:53;40.27;;;28.50;;
11141;SDS011;5625;50.122;19.864;2024-03-02T00:54:22;39.37;;;28.50;;
11141;SDS011;5625;50.122;19.864;2024-03-02T00:56:53;42.07;;;29.33;;
11141;SDS011;5625;50.122;19.864;2024-03-02T00:59:23;42.90;;;28.50;;
11141;SDS011;5625;50.122;19.864;2024-03-02T01:01:52;39.57;;;27.40;;
11141;SDS011;5625;50.122;19.864;2024-03-02T01:04:20;36.70;;;27.43;;
11141;SDS011;5625;50.122;19.864;2024-03-02T01:06:49;36.40;;;26.43;;
11141;SDS011;5625;50.122;19.864;2024-03-02T01:09:17;36.77;;;26.83;;
11141;SDS011;5625;50.122;19.864;2024-03-02T01:11:45;39.17;;;27.97;;
11141;SDS011;5625;50.122;19.864;2024-03-02T01:14:13;39.17;;;26.93;;
11141;SDS011;5625;50.122;19.864;2024-03-02T01:16:41;37.73;;;26.63;;
11141;SDS011;5625;50.122;19.864;2024-03-02T01:19:11;35.67;;;27.93;;
11141;SDS011;5625;50.122;19.864;2024-03-02T01:21:39;38.40;;;27.77;;
11141;SDS011;5625;50.122;19.864;2024-03-02T01:24:07;37.50;;;27.93;;
11141;SDS011;5625;50.122;19.864;2024-03-02T01:26:35;36.27;;;27.43;;
11141;SDS011;5625;50.122;19.864;2024-03-02T01:29:03;36.67;;;28.70;;
11141;SDS011;5625;50.122;19.864;2024-03-02T01:31:31;42.00;;;28.40;;
11141;SDS011;5625;50.122;19.864;2024-03-02T01:34:00;37.27;;;27.83;;
11141;SDS011;5625;50.122;19.864;2024-03-02T01:36:29;38.73;;;29.53;;
11141;SDS011;5625;50.122;19.864;2024-03-02T01:38:57;39.60;;;29.37;;
11141;SDS011;5625;50.122;19.864;2024-03-02T01:41:25;39.00;;;28.37;;
11141;SDS011;5625;50.122;19.864;2024-03-02T01:43:54;35.43;;;26.90;;
11141;SDS011;5625;50.122;19.864;2024-03-02T01:46:22;37.60;;;27.30;;
11141;SDS011;5625;50.122;19.864;2024-03-02T01:48:50;41.43;;;27.37;;
11141;SDS011;5625;50.122;19.864;2024-03-02T01:51:18;34.70;;;27.57;;
11141;SDS011;5625;50.122;19.864;2024-03-02T01:53:50;37.60;;;26.93;;
11141;SDS011;5625;50.122;19.864;2024-03-02T01:56:18;36.87;;;26.80;;
11141;SDS011;5625;50.122;19.864;2024-03-02T01:58:47;36.80;;;27.30;;
11141;SDS011;5625;50.122;19.864;2024-03-02T02:01:15;36.93;;;26.13;;
11141;SDS011;5625;50.122;19.864;2024-03-02T02:03:43;35.27;;;26.57;;
11141;SDS011;5625;50.122;19.864;2024-03-02T02:06:12;37.30;;;27.97;;
11141;SDS011;5625;50.122;19.864;2024-03-02T02:08:42;37.50;;;26.83;;
11141;SDS011;5625;50.122;19.864;2024-03-02T02:11:12;36.27;;;27.60;;
11141;SDS011;5625;50.122;19.864;2024-03-02T02:13:42;38.97;;;28.83;;
11141;SDS011;5625;50.122;19.864;2024-03-02T02:16:10;38.27;;;27.70;;
11141;SDS011;5625;50.122;19.864;2024-03-02T02:18:38;35.67;;;27.57;;
11141;SDS011;5625;50.122;19.864;2024-03-02T02:21:07;38.40;;;27.83;;
11141;SDS011;5625;50.122;19.864;2024-03-02T02:23:36;37.63;;;28.20;;
11141;SDS011;5625;50.122;19.864;2024-03-02T02:26:04;37.23;;;26.67;;
11141;SDS011;5625;50.122;19.864;2024-03-02T02:28:32;37.33;;;27.43;;
11141;SDS011;5625;50.122;19.864;2024-03-02T02:31:00;38.77;;;27.03;;
11141;SDS011;5625;50.122;19.864;2024-03-02T02:33:29;36.77;;;27.77;;
11141;SDS011;5625;50.122;19.864;2024-03-02T02:35:57;37.80;;;28.40;;
11141;SDS011;5625;50.122;19.864;2024-03-02T02:38:25;35.80;;;27.63;;
11141;SDS011;5625;50.122;19.864;2024-03-02T02:40:55;36.37;;;28.17;;
11141;SDS011;5625;50.122;19.864;2024-03-02T02:43:23;35.17;;;27.10;;
11141;SDS011;5625;50.122;19.864;2024-03-02T02:45:51;39.00;;;28.30;;
11141;SDS011;5625;50.122;19.864;2024-03-02T02:48:19;39.37;;;28.67;;
11141;SDS011;5625;50.122;19.864;2024-03-02T02:50:47;37.63;;;27.67;;
11141;SDS011;5625;50.122;19.864;2024-03-02T02:53:15;38.10;;;27.57;;
11141;SDS011;5625;50.122;19.864;2024-03-02T02:55:44;35.53;;;27.73;;
11141;SDS011;5625;50.122;19.864;2024-03-02T02:58:13;37.50;;;26.60;;
11141;SDS011;5625;50.122;19.864;2024-03-02T03:00:42;36.27;;;26.23;;
11141;SDS011;5625;50.122;19.864;2024-03-02T03:03:10;35.53;;;27.97;;
11141;SDS011;5625;50.122;19.864;2024-03-02T03:05:38;35.17;;;27.43;;
11141;SDS011;5625;50.122;19.864;2024-03-02T03:08:06;37.57;;;27.80;;
11141;SDS011;5625;50.122;19.864;2024-03-02T03:10:34;33.20;;;26.20;;
11141;SDS011;5625;50.122;19.864;2024-03-02T03:13:03;36.63;;;27.37;;
11141;SDS011;5625;50.122;19.864;2024-03-02T03:15:34;33.63;;;26.20;;
11141;SDS011;5625;50.122;19.864;2024-03-02T03:18:03;37.10;;;27.97;;
11141;SDS011;5625;50.122;19.864;2024-03-02T03:20:31;37.37;;;27.17;;
11141;SDS011;5625;50.122;19.864;2024-03-02T03:23:00;36.03;;;28.30;;
11141;SDS011;5625;50.122;19.864;2024-03-02T03:25:28;38.93;;;28.47;;
11141;SDS011;5625;50.122;19.864;2024-03-02T03:27:56;34.23;;;27.37;;
11141;SDS011;5625;50.122;19.864;2024-03-02T03:30:25;35.80;;;27.03;;
11141;SDS011;5625;50.122;19.864;2024-03-02T03:32:54;34.67;;;27.93;;
11141;SDS011;5625;50.122;19.864;2024-03-02T03:35:22;36.20;;;28.20;;
11141;SDS011;5625;50.122;19.864;2024-03-02T03:37:51;37.67;;;28.87;;
11141;SDS011;5625;50.122;19.864;2024-03-02T03:40:19;37.17;;;27.60;;
11141;SDS011;5625;50.122;19.864;2024-03-02T03:42:47;40.53;;;28.67;;
11141;SDS011;5625;50.122;19.864;2024-03-02T03:45:16;38.33;;;28.00;;
11141;SDS011;5625;50.122;19.864;2024-03-02T03:47:45;34.27;;;27.17;;
11141;SDS011;5625;50.122;19.864;2024-03-02T03:50:14;34.17;;;27.10;;
11141;SDS011;5625;50.122;19.864;2024-03-02T03:52:42;36.10;;;26.40;;
11141;SDS011;5625;50.122;19.864;2024-03-02T03:55:11;38.13;;;27.73;;
11141;SDS011;5625;50.122;19.864;2024-03-02T03:57:39;36.13;;;26.37;;
11141;SDS011;5625;50.122;19.864;2024-03-02T04:00:09;37.17;;;26.97;;
11141;SDS011;5625;50.122;19.864;2024-03-02T04:02:38;38.43;;;28.37;;
11141;SDS011;5625;50.122;19.864;2024-03-02T04:05:06;36.70;;;28.07;;
11141;SDS011;5625;50.122;19.864;2024-03-02T04:07:39;35.83;;;26.87;;
11141;SDS011;5625;50.122;19.864;2024-03-02T04:10:07;36.40;;;26.93;;
11141;SDS011;5625;50.122;19.864;2024-03-02T04:12:37;33.10;;;26.57;;
11141;SDS011;5625;50.122;19.864;2024-03-02T04:15:05;36.73;;;27.23;;
11141;SDS011;5625;50.122;19.864;2024-03-02T04:17:34;33.20;;;26.30;;
11141;SDS011;5625;50.122;19.864;2024-03-02T04:20:03;36.60;;;27.30;;
11141;SDS011;5625;50.122;19.864;2024-03-02T04:22:32;35.90;;;26.77;;
11141;SDS011;5625;50.122;19.864;2024-03-02T04:25:03;34.20;;;25.73;;
11141;SDS011;5625;50.122;19.864;2024-03-02T04:27:33;36.13;;;27.37;;
11141;SDS011;5625;50.122;19.864;2024-03-02T04:30:03;40.73;;;27.13;;
11141;SDS011;5625;50.122;19.864;2024-03-02T04:32:33;35.10;;;26.47;;
11141;SDS011;5625;50.122;19.864;2024-03-02T04:35:02;35.20;;;27.20;;
11141;SDS011;5625;50.122;19.864;2024-03-02T04:37:31;36.37;;;25.73;;
11141;SDS011;5625;50.122;19.864;2024-03-02T04:40:00;35.30;;;26.17;;
11141;SDS011;5625;50.122;19.864;2024-03-02T04:42:37;34.60;;;26.90;;
11141;SDS011;5625;50.122;19.864;2024-03-02T04:45:06;34.90;;;26.47;;
11141;SDS011;5625;50.122;19.864;2024-03-02T04:47:34;36.00;;;26.47;;
11141;SDS011;5625;50.122;19.864;2024-03-02T04:50:03;36.10;;;26.43;;
11141;SDS011;5625;50.122;19.864;2024-03-02T04:52:34;36.30;;;26.73;;
11141;SDS011;5625;50.122;19.864;2024-03-02T04:55:06;33.43;;;26.33;;
11141;SDS011;5625;50.122;19.864;2024-03-02T04:58:11;31.43;;;26.10;;
11141;SDS011;5625;50.122;19.864;2024-03-02T05:00:39;33.20;;;26.40;;
11141;SDS011;5625;50.122;19.864;2024-03-02T05:03:09;33.83;;;25.67;;
11141;SDS011;5625;50.122;19.864;2024-03-02T05:05:37;32.43;;;25.67;;
11141;SDS011;5625;50.122;19.864;2024-03-02T05:08:05;33.60;;;24.80;;
11141;SDS011;5625;50.122;19.864;2024-03-02T05:10:35;31.07;;;25.07;;
11141;SDS011;5625;50.122;19.864;2024-03-02T05:13:04;32.63;;;24.67;;
11141;SDS011;5625;50.122;19.864;2024-03-02T05:15:31;33.80;;;24.67;;
11141;SDS011;5625;50.122;19.864;2024-03-02T05:17:59;33.23;;;25.23;;
11141;SDS011;5625;50.122;19.864;2024-03-02T05:20:29;35.27;;;25.27;;
11141;SDS011;5625;50.122;19.864;2024-03-02T05:22:57;31.67;;;24.20;;
11141;SDS011;5625;50.122;19.864;2024-03-02T05:25:25;33.67;;;25.10;;
11141;SDS011;5625;50.122;19.864;2024-03-02T05:27:54;33.93;;;24.40;;
11141;SDS011;5625;50.122;19.864;2024-03-02T05:30:23;31.23;;;24.87;;
11141;SDS011;5625;50.122;19.864;2024-03-02T05:32:52;33.90;;;25.13;;
11141;SDS011;5625;50.122;19.864;2024-03-02T05:35:20;31.03;;;24.10;;
11141;SDS011;5625;50.122;19.864;2024-03-02T05:37:48;31.27;;;25.63;;
11141;SDS011;5625;50.122;19.864;2024-03-02T05:40:16;34.33;;;25.67;;
11141;SDS011;5625;50.122;19.864;2024-03-02T05:42:47;34.23;;;25.77;;
11141;SDS011;5625;50.122;19.864;2024-03-02T05:45:16;32.17;;;24.50;;
11141;SDS011;5625;50.122;19.864;2024-03-02T05:47:44;34.43;;;25.07;;
11141;SDS011;5625;50.122;19.864;2024-03-02T05:50:13;32.30;;;25.40;;
11141;SDS011;5625;50.122;19.864;2024-03-02T05:52:57;35.23;;;28.80;;
11141;SDS011;5625;50.122;19.864;2024-03-02T05:55:26;34.50;;;28.50;;
11141;SDS011;5625;50.122;19.864;2024-03-02T05:57:54;36.13;;;29.27;;
11141;SDS011;5625;50.122;19.864;2024-03-02T06:00:39;35.87;;;28.97;;
11141;SDS011;5625;50.122;19.864;2024-03-02T06:03:07;37.50;;;29.50;;
11141;SDS011;5625;50.122;19.864;2024-03-02T06:05:35;36.23;;;30.13;;
11141;SDS011;5625;50.122;19.864;2024-03-02T06:08:03;37.30;;;28.73;;
11141;SDS011;5625;50.122;19.864;2024-03-02T06:10:32;41.27;;;31.53;;
11141;SDS011;5625;50.122;19.864;2024-03-02T06:13:02;39.57;;;29.90;;
11141;SDS011;5625;50.122;19.864;2024-03-02T06:15:30;35.87;;;27.93;;
11141;SDS011;5625;50.122;19.864;2024-03-02T06:18:00;35.90;;;27.67;;
11141;SDS011;5625;50.122;19.864;2024-03-02T06:20:28;35.90;;;28.13;;
11141;SDS011;5625;50.122;19.864;2024-03-02T06:23:01;40.73;;;29.37;;
11141;SDS011;5625;50.122;19.864;2024-03-02T06:25:30;36.40;;;27.20;;
11141;SDS011;5625;50.122;19.864;2024-03-02T06:27:58;35.00;;;26.77;;
11141;SDS011;5625;50.122;19.864;2024-03-02T06:30:26;32.73;;;27.17;;
11141;SDS011;5625;50.122;19.864;2024-03-02T06:32:55;34.67;;;27.37;;
11141;SDS011;5625;50.122;19.864;2024-03-02T06:35:24;37.07;;;26.43;;
11141;SDS011;5625;50.122;19.864;2024-03-02T06:37:52;38.67;;;28.60;;
11141;SDS011;5625;50.122;19.864;2024-03-02T06:40:20;40.13;;;29.57;;
11141;SDS011;5625;50.122;19.864;2024-03-02T06:42:49;40.40;;;30.47;;
11141;SDS011;5625;50.122;19.864;2024-03-02T06:45:17;38.17;;;29.67;;
11141;SDS011;5625;50.122;19.864;2024-03-02T06:47:45;37.60;;;29.33;;
11141;SDS011;5625;50.122;19.864;2024-03-02T06:50:13;38.17;;;28.60;;
11141;SDS011;5625;50.122;19.864;2024-03-02T06:52:43;40.57;;;28.27;;
11141;SDS011;5625;50.122;19.864;2024-03-02T06:55:11;36.57;;;27.90;;
11141;SDS011;5625;50.122;19.864;2024-03-02T06:57:39;34.37;;;26.73;;
11141;SDS011;5625;50.122;19.864;2024-03-02T07:00:07;37.37;;;27.77;;
11141;SDS011;5625;50.122;19.864;2024-03-02T07:02:36;36.53;;;27.47;;
11141;SDS011;5625;50.122;19.864;2024-03-02T07:05:04;36.30;;;28.20;;
11141;SDS011;5625;50.122;19.864;2024-03-02T07:07:33;38.40;;;28.50;;
11141;SDS011;5625;50.122;19.864;2024-03-02T07:10:04;37.03;;;29.37;;
11141;SDS011;5625;50.122;19.864;2024-03-02T07:12:34;35.87;;;28.67;;
11141;SDS011;5625;50.122;19.864;2024-03-02T07:15:02;40.73;;;30.27;;
11141;SDS011;5625;50.122;19.864;2024-03-02T07:17:56;35.47;;;27.63;;
11141;SDS011;5625;50.122;19.864;2024-03-02T07:20:24;38.53;;;29.83;;
11141;SDS011;5625;50.122;19.864;2024-03-02T07:22:52;38.83;;;28.07;;
11141;SDS011;5625;50.122;19.864;2024-03-02T07:25:21;33.60;;;27.33;;
11141;SDS011;5625;50.122;19.864;2024-03-02T07:27:52;34.73;;;26.47;;
11141;SDS011;5625;50.122;19.864;2024-03-02T07:30:21;34.67;;;27.17;;
11141;SDS011;5625;50.122;19.864;2024-03-02T07:32:49;32.40;;;24.83;;
11141;SDS011;5625;50.122;19.864;2024-03-02T07:35:18;34.93;;;27.47;;
11141;SDS011;5625;50.122;19.864;2024-03-02T07:37:46;31.60;;;26.03;;
11141;SDS011;5625;50.122;19.864;2024-03-02T07:40:15;33.83;;;26.93;;
11141;SDS011;5625;50.122;19.864;2024-03-02T07:42:45;34.70;;;26.23;;
11141;SDS011;5625;50.122;19.864;2024-03-02T07:45:13;34.70;;;24.63;;
11141;SDS011;5625;50.122;19.864;2024-03-02T07:47:43;34.77;;;26.27;;
11141;SDS011;5625;50.122;19.864;2024-03-02T07:50:12;32.33;;;25.57;;
11141;SDS011;5625;50.122;19.864;2024-03-02T07:52:40;31.23;;;25.83;;
11141;SDS011;5625;50.122;19.864;2024-03-02T07:55:08;34.27;;;26.43;;
11141;SDS011;5625;50.122;19.864;2024-03-02T07:57:36;30.47;;;24.50;;
11141;SDS011;5625;50.122;19.864;2024-03-02T08:00:07;32.80;;;24.70;;
11141;SDS011;5625;50.122;19.864;2024-03-02T08:02:36;31.07;;;25.13;;
11141;SDS011;5625;50.122;19.864;2024-03-02T08:05:04;35.17;;;26.00;;
11141;SDS011;5625;50.122;19.864;2024-03-02T08:07:35;34.40;;;26.40;;
11141;SDS011;5625;50.122;19.864;2024-03-02T08:10:05;31.60;;;25.60;;
11141;SDS011;5625;50.122;19.864;2024-03-02T08:12:36;35.80;;;26.60;;
11141;SDS011;5625;50.122;19.864;2024-03-02T08:15:04;40.00;;;26.23;;
11141;SDS011;5625;50.122;19.864;2024-03-02T08:17:34;32.93;;;24.97;;
11141;SDS011;5625;50.122;19.864;2024-03-02T08:20:04;32.57;;;25.57;;
11141;SDS011;5625;50.122;19.864;2024-03-02T08:22:34;31.73;;;25.77;;
11141;SDS011;5625;50.122;19.864;2024-03-02T08:25:02;34.17;;;25.50;;
11141;SDS011;5625;50.122;19.864;2024-03-02T08:27:31;30.83;;;25.10;;
11141;SDS011;5625;50.122;19.864;2024-03-02T08:30:00;35.07;;;25.83;;
11141;SDS011;5625;50.122;19.864;2024-03-02T08:32:31;31.60;;;25.13;;
11141;SDS011;5625;50.122;19.864;2024-03-02T08:34:59;34.70;;;25.77;;
11141;SDS011;5625;50.122;19.864;2024-03-02T08:37:27;33.63;;;25.47;;
11141;SDS011;5625;50.122;19.864;2024-03-02T08:39:55;34.20;;;26.03;;
11141;SDS011;5625;50.122;19.864;2024-03-02T08:42:24;35.20;;;26.23;;
11141;SDS011;5625;50.122;19.864;2024-03-02T08:44:52;34.57;;;26.20;;
11141;SDS011;5625;50.122;19.864;2024-03-02T08:47:20;37.73;;;26.23;;
11141;SDS011;5625;50.122;19.864;2024-03-02T08:49:50;33.80;;;27.03;;
11141;SDS011;5625;50.122;19.864;2024-03-02T08:52:18;30.40;;;25.03;;
11141;SDS011;5625;50.122;19.864;2024-03-02T08:54:46;31.13;;;24.53;;
11141;SDS011;5625;50.122;19.864;2024-03-02T08:57:14;31.33;;;25.50;;
11141;SDS011;5625;50.122;19.864;2024-03-02T08:59:42;31.77;;;24.20;;
11141;SDS011;5625;50.122;19.864;2024-03-02T09:02:11;30.77;;;24.13;;
11141;SDS011;5625;50.122;19.864;2024-03-02T09:04:39;34.27;;;25.30;;
11141;SDS011;5625;50.122;19.864;2024-03-02T09:07:09;31.57;;;22.90;;
11141;SDS011;5625;50.122;19.864;2024-03-02T09:09:37;31.23;;;23.77;;
11141;SDS011;5625;50.122;19.864;2024-03-02T09:12:06;30.07;;;23.87;;
11141;SDS011;5625;50.122;19.864;2024-03-02T09:14:37;31.17;;;24.63;;
11141;SDS011;5625;50.122;19.864;2024-03-02T09:17:05;30.80;;;24.23;;
11141;SDS011;5625;50.122;19.864;2024-03-02T09:19:34;29.83;;;25.20;;
11141;SDS011;5625;50.122;19.864;2024-03-02T09:22:02;31.83;;;23.97;;
11141;SDS011;5625;50.122;19.864;2024-03-02T09:24:33;29.20;;;23.30;;
11141;SDS011;5625;50.122;19.864;2024-03-02T09:27:01;34.13;;;24.27;;
11141;SDS011;5625;50.122;19.864;2024-03-02T09:29:30;30.80;;;23.60;;
11141;SDS011;5625;50.122;19.864;2024-03-02T09:31:58;31.00;;;24.73;;
11141;SDS011;5625;50.122;19.864;2024-03-02T09:34:29;30.13;;;24.00;;
11141;SDS011;5625;50.122;19.864;2024-03-02T09:37:00;32.33;;;25.40;;
11141;SDS011;5625;50.122;19.864;2024-03-02T09:39:32;30.60;;;24.33;;
11141;SDS011;5625;50.122;19.864;2024-03-02T09:42:02;31.17;;;24.30;;
11141;SDS011;5625;50.122;19.864;2024-03-02T09:44:31;29.00;;;25.00;;
11141;SDS011;5625;50.122;19.864;2024-03-02T09:47:01;32.93;;;25.57;;
11141;SDS011;5625;50.122;19.864;2024-03-02T09:49:29;34.70;;;25.23;;
11141;SDS011;5625;50.122;19.864;2024-03-02T09:51:57;33.50;;;26.07;;
11141;SDS011;5625;50.122;19.864;2024-03-02T09:54:25;33.03;;;27.73;;
11141;SDS011;5625;50.122;19.864;2024-03-02T09:56:56;34.17;;;27.03;;
11141;SDS011;5625;50.122;19.864;2024-03-02T09:59:24;36.27;;;27.17;;
11141;SDS011;5625;50.122;19.864;2024-03-02T10:01:57;32.87;;;26.90;;
11141;SDS011;5625;50.122;19.864;2024-03-02T10:04:27;37.30;;;27.93;;
11141;SDS011;5625;50.122;19.864;2024-03-02T10:07:10;35.03;;;28.37;;
11141;SDS011;5625;50.122;19.864;2024-03-02T10:09:39;31.50;;;26.43;;
11141;SDS011;5625;50.122;19.864;2024-03-02T10:12:10;40.60;;;30.47;;
11141;SDS011;5625;50.122;19.864;2024-03-02T10:14:41;36.27;;;29.63;;
11141;SDS011;5625;50.122;19.864;2024-03-02T10:17:12;34.23;;;27.40;;
11141;SDS011;5625;50.122;19.864;2024-03-02T10:19:41;32.90;;;27.23;;
11141;SDS011;5625;50.122;19.864;2024-03-02T10:22:10;33.07;;;27.07;;
11141;SDS011;5625;50.122;19.864;2024-03-02T10:24:38;36.57;;;27.70;;
11141;SDS011;5625;50.122;19.864;2024-03-02T10:27:16;34.87;;;27.07;;
11141;SDS011;5625;50.122;19.864;2024-03-02T10:29:46;33.77;;;27.17;;
11141;SDS011;5625;50.122;19.864;2024-03-02T10:32:15;33.83;;;27.73;;
11141;SDS011;5625;50.122;19.864;2024-03-02T10:34:44;33.20;;;27.30;;
11141;SDS011;5625;50.122;19.864;2024-03-02T10:37:13;35.70;;;28.00;;
11141;SDS011;5625;50.122;19.864;2024-03-02T10:39:43;37.27;;;28.03;;
11141;SDS011;5625;50.122;19.864;2024-03-02T10:42:16;35.73;;;26.97;;
11141;SDS011;5625;50.122;19.864;2024-03-02T10:44:46;34.27;;;27.00;;
11141;SDS011;5625;50.122;19.864;2024-03-02T10:47:16;34.20;;;26.40;;
11141;SDS011;5625;50.122;19.864;2024-03-02T10:49:49;33.70;;;27.60;;
11141;SDS011;5625;50.122;19.864;2024-03-02T10:52:19;34.83;;;28.13;;
11141;SDS011;5625;50.122;19.864;2024-03-02T10:54:49;34.20;;;26.83;;
11141;SDS011;5625;50.122;19.864;2024-03-02T10:57:19;34.53;;;26.93;;
11141;SDS011;5625;50.122;19.864;2024-03-02T10:59:52;33.43;;;27.73;;
11141;SDS011;5625;50.122;19.864;2024-03-02T11:02:23;32.70;;;26.93;;
11141;SDS011;5625;50.122;19.864;2024-03-02T11:04:53;34.23;;;27.07;;
11141;SDS011;5625;50.122;19.864;2024-03-02T11:07:23;36.43;;;27.97;;
11141;SDS011;5625;50.122;19.864;2024-03-02T11:09:56;36.43;;;28.53;;
11141;SDS011;5625;50.122;19.864;2024-03-02T11:12:38;35.57;;;27.43;;
11141;SDS011;5625;50.122;19.864;2024-03-02T11:15:11;36.70;;;27.83;;
11141;SDS011;5625;50.122;19.864;2024-03-02T11:17:45;32.53;;;27.00;;
11141;SDS011;5625;50.122;19.864;2024-03-02T11:20:15;32.20;;;26.70;;
11141;SDS011;5625;50.122;19.864;2024-03-02T11:22:45;30.13;;;26.10;;
11141;SDS011;5625;50.122;19.864;2024-03-02T11:25:23;32.90;;;26.97;;
11141;SDS011;5625;50.122;19.864;2024-03-02T11:28:00;35.07;;;26.73;;
11141;SDS011;5625;50.122;19.864;2024-03-02T11:33:24;32.37;;;26.43;;
11141;SDS011;5625;50.122;19.864;2024-03-02T11:35:57;36.17;;;29.67;;
11141;SDS011;5625;50.122;19.864;2024-03-02T11:38:32;30.80;;;25.87;;
11141;SDS011;5625;50.122;19.864;2024-03-02T11:41:02;32.13;;;26.90;;
11141;SDS011;5625;50.122;19.864;2024-03-02T11:43:38;32.73;;;26.57;;
11141;SDS011;5625;50.122;19.864;2024-03-02T11:46:06;32.40;;;26.23;;
11141;SDS011;5625;50.122;19.864;2024-03-02T11:48:36;30.90;;;25.40;;
11141;SDS011;5625;50.122;19.864;2024-03-02T11:51:06;31.13;;;25.60;;
11141;SDS011;5625;50.122;19.864;2024-03-02T11:53:35;30.27;;;24.03;;
11141;SDS011;5625;50.122;19.864;2024-03-02T11:56:06;33.33;;;25.00;;
11141;SDS011;5625;50.122;19.864;2024-03-02T11:58:39;31.77;;;25.57;;
11141;SDS011;5625;50.122;19.864;2024-03-02T12:01:09;32.43;;;25.50;;
11141;SDS011;5625;50.122;19.864;2024-03-02T12:03:38;36.47;;;26.87;;
11141;SDS011;5625;50.122;19.864;2024-03-02T12:06:07;33.23;;;26.63;;
11141;SDS011;5625;50.122;19.864;2024-03-02T12:08:35;30.90;;;25.73;;
11141;SDS011;5625;50.122;19.864;2024-03-02T12:11:04;32.30;;;26.10;;
11141;SDS011;5625;50.122;19.864;2024-03-02T12:13:33;32.33;;;27.00;;
11141;SDS011;5625;50.122;19.864;2024-03-02T12:16:03;32.03;;;25.47;;
11141;SDS011;5625;50.122;19.864;2024-03-02T12:18:32;33.17;;;26.37;;
11141;SDS011;5625;50.122;19.864;2024-03-02T12:21:00;30.83;;;25.67;;
11141;SDS011;5625;50.122;19.864;2024-03-02T12:23:30;31.00;;;26.13;;
11141;SDS011;5625;50.122;19.864;2024-03-02T12:25:58;31.30;;;25.50;;
11141;SDS011;5625;50.122;19.864;2024-03-02T12:28:26;32.30;;;25.90;;
11141;SDS011;5625;50.122;19.864;2024-03-02T12:30:57;32.50;;;25.87;;
11141;SDS011;5625;50.122;19.864;2024-03-02T12:33:27;33.27;;;26.27;;
11141;SDS011;5625;50.122;19.864;2024-03-02T12:35:56;34.47;;;28.00;;
11141;SDS011;5625;50.122;19.864;2024-03-02T12:38:26;29.73;;;25.57;;
11141;SDS011;5625;50.122;19.864;2024-03-02T12:40:55;31.33;;;25.63;;
11141;SDS011;5625;50.122;19.864;2024-03-02T12:43:29;32.07;;;25.60;;
11141;SDS011;5625;50.122;19.864;2024-03-02T12:45:57;31.43;;;26.73;;
11141;SDS011;5625;50.122;19.864;2024-03-02T12:48:27;36.97;;;26.30;;
11141;SDS011;5625;50.122;19.864;2024-03-02T12:50:55;31.50;;;26.23;;
11141;SDS011;5625;50.122;19.864;2024-03-02T12:53:24;29.70;;;25.13;;
11141;SDS011;5625;50.122;19.864;2024-03-02T12:55:52;33.00;;;26.67;;
11141;SDS011;5625;50.122;19.864;2024-03-02T12:58:22;34.33;;;26.83;;
11141;SDS011;5625;50.122;19.864;2024-03-02T13:00:51;32.97;;;25.43;;
11141;SDS011;5625;50.122;19.864;2024-03-02T13:03:36;33.97;;;26.10;;
11141;SDS011;5625;50.122;19.864;2024-03-02T13:06:05;32.87;;;26.83;;
11141;SDS011;5625;50.122;19.864;2024-03-02T13:08:34;32.13;;;26.50;;
11141;SDS011;5625;50.122;19.864;2024-03-02T13:11:03;30.93;;;25.77;;
11141;SDS011;5625;50.122;19.864;2024-03-02T13:13:33;34.77;;;26.50;;
11141;SDS011;5625;50.122;19.864;2024-03-02T13:16:01;32.23;;;26.50;;
11141;SDS011;5625;50.122;19.864;2024-03-02T13:18:31;35.07;;;27.20;;
11141;SDS011;5625;50.122;19.864;2024-03-02T13:21:02;33.13;;;26.67;;
11141;SDS011;5625;50.122;19.864;2024-03-02T13:23:30;35.67;;;28.20;;
11141;SDS011;5625;50.122;19.864;2024-03-02T13:25:58;32.13;;;27.07;;
11141;SDS011;5625;50.122;19.864;2024-03-02T13:28:27;35.83;;;27.50;;
11141;SDS011;5625;50.122;19.864;2024-03-02T13:30:55;33.03;;;27.00;;
11141;SDS011;5625;50.122;19.864;2024-03-02T13:33:24;35.43;;;26.90;;
11141;SDS011;5625;50.122;19.864;2024-03-02T13:35:52;33.27;;;27.63;;
11141;SDS011;5625;50.122;19.864;2024-03-02T13:38:22;31.80;;;26.87;;
11141;SDS011;5625;50.122;19.864;2024-03-02T13:40:50;36.97;;;28.20;;
11141;SDS011;5625;50.122;19.864;2024-03-02T13:43:18;34.97;;;26.03;;
11141;SDS011;5625;50.122;19.864;2024-03-02T13:45:46;28.90;;;24.70;;
11141;SDS011;5625;50.122;19.864;2024-03-02T13:48:14;33.57;;;26.70;;
11141;SDS011;5625;50.122;19.864;2024-03-02T13:50:42;33.47;;;25.90;;
11141;SDS011;5625;50.122;19.864;2024-03-02T13:53:11;31.13;;;25.23;;
11141;SDS011;5625;50.122;19.864;2024-03-02T13:55:41;34.67;;;25.83;;
11141;SDS011;5625;50.122;19.864;2024-03-02T13:58:09;35.03;;;26.60;;
11141;SDS011;5625;50.122;19.864;2024-03-02T14:00:38;32.13;;;26.77;;
11141;SDS011;5625;50.122;19.864;2024-03-02T14:03:06;34.23;;;27.63;;
11141;SDS011;5625;50.122;19.864;2024-03-02T14:05:34;37.07;;;28.63;;
11141;SDS011;5625;50.122;19.864;2024-03-02T14:08:03;35.63;;;27.80;;
11141;SDS011;5625;50.122;19.864;2024-03-02T14:10:32;33.13;;;26.03;;
11141;SDS011;5625;50.122;19.864;2024-03-02T14:13:03;32.17;;;26.30;;
11141;SDS011;5625;50.122;19.864;2024-03-02T14:15:31;36.17;;;27.63;;
11141;SDS011;5625;50.122;19.864;2024-03-02T14:17:59;34.40;;;28.10;;
11141;SDS011;5625;50.122;19.864;2024-03-02T14:20:30;37.90;;;30.37;;
11141;SDS011;5625;50.122;19.864;2024-03-02T14:22:59;36.33;;;29.77;;
11141;SDS011;5625;50.122;19.864;2024-03-02T14:25:29;37.80;;;29.87;;
11141;SDS011;5625;50.122;19.864;2024-03-02T14:28:00;38.17;;;29.90;;
11141;SDS011;5625;50.122;19.864;2024-03-02T14:30:49;38.67;;;30.33;;
11141;SDS011;5625;50.122;19.864;2024-03-02T14:33:18;36.77;;;30.77;;
11141;SDS011;5625;50.122;19.864;2024-03-02T14:35:46;35.60;;;29.17;;
11141;SDS011;5625;50.122;19.864;2024-03-02T14:38:14;39.83;;;31.60;;